Time;durP1;ratioP1;P1;durP2;ratioP2;P2;SDS_P1;SDS_P2;PMS_P1;PMS_P2;Temp;Humidity;BMP_temperature;BMP_pressure;BME280_temperature;BME280_humidity;BME280_pressure;Samples;Min_cycle;Max_cycle;Signal;HPM_P1;HPM_P2
2023/02/22 00:00:42;;;;;;;30.50;14.98;;;8.80;99.90;;;;;;5024886;28;20029;-77
2023/02/22 00:03:26;;;;;;;28.45;13.38;;;8.80;99.90;;;;;;5025977;28;20059;-77
2023/02/22 00:06:03;;;;;;;29.90;14.30;;;8.80;99.90;;;;;;5011766;28;20049;-77
2023/02/22 00:08:31;;;;;;;28.02;14.00;;;8.80;99.90;;;;;;5023095;28;20045;-78
2023/02/22 00:11:02;;;;;;;26.23;13.07;;;8.80;99.90;;;;;;5009842;28;20121;-76
2023/02/22 00:13:28;;;;;;;25.73;12.70;;;8.80;99.90;;;;;;5025153;28;20539;-76
2023/02/22 00:15:58;;;;;;;28.10;13.80;;;8.80;99.90;;;;;;5026124;28;20045;-76
2023/02/22 00:18:28;;;;;;;32.47;13.30;;;8.80;99.90;;;;;;5028007;28;20044;-77
2023/02/22 00:20:58;;;;;;;25.77;12.30;;;9.40;99.90;;;;;;5016216;28;20064;-77
2023/02/22 00:23:25;;;;;;;29.75;13.32;;;8.70;99.90;;;;;;5015132;28;20049;-77
2023/02/22 00:25:51;;;;;;;26.65;13.32;;;8.70;99.90;;;;;;5036244;28;20045;-77
2023/02/22 00:28:17;;;;;;;27.77;13.27;;;8.70;99.90;;;;;;5024736;28;20045;-76
2023/02/22 00:30:44;;;;;;;26.52;13.18;;;8.70;99.90;;;;;;5005777;28;20402;-78
2023/02/22 00:33:14;;;;;;;24.08;12.20;;;8.90;99.90;;;;;;5032070;28;20114;-77
2023/02/22 00:35:40;;;;;;;26.67;12.55;;;8.70;99.90;;;;;;5020092;28;20477;-77
2023/02/22 00:38:07;;;;;;;27.15;12.85;;;8.70;99.90;;;;;;5025052;28;20397;-77
2023/02/22 00:40:36;;;;;;;27.13;12.93;;;8.70;99.90;;;;;;5019389;28;20131;-77
2023/02/22 00:43:04;;;;;;;27.10;13.45;;;8.70;99.90;;;;;;5024018;28;20042;-77
2023/02/22 00:45:31;;;;;;;24.08;11.70;;;8.70;99.90;;;;;;5042104;28;20038;-77
2023/02/22 00:47:58;;;;;;;27.40;13.48;;;8.70;99.90;;;;;;5043174;28;20430;-77
2023/02/22 00:50:29;;;;;;;25.80;12.75;;;8.70;99.90;;;;;;5035133;28;20037;-78
2023/02/22 00:52:56;;;;;;;26.13;12.70;;;8.70;99.90;;;;;;5019745;28;20045;-77
2023/02/22 00:55:30;;;;;;;25.50;12.48;;;8.70;99.90;;;;;;5027283;28;20276;-77
2023/02/22 00:57:56;;;;;;;25.35;12.82;;;8.70;99.90;;;;;;5008544;28;20410;-77
2023/02/22 01:00:26;;;;;;;27.40;12.90;;;8.80;99.90;;;;;;5008344;28;20033;-77
2023/02/22 01:02:55;;;;;;;21.65;10.80;;;8.70;99.90;;;;;;5004026;28;20042;-77
2023/02/22 01:05:25;;;;;;;25.38;12.48;;;9.30;99.90;;;;;;5003564;28;20041;-77
2023/02/22 01:07:52;;;;;;;25.45;12.77;;;8.70;99.90;;;;;;5027334;28;20124;-77
2023/02/22 01:10:23;;;;;;;23.75;12.23;;;8.70;99.90;;;;;;5003567;28;20047;-77
2023/02/22 01:12:49;;;;;;;24.13;12.13;;;8.70;99.90;;;;;;5026774;28;20117;-77
2023/02/22 01:15:20;;;;;;;26.25;13.35;;;8.60;99.90;;;;;;5026803;28;20123;-77
2023/02/22 01:17:52;;;;;;;26.92;13.63;;;8.70;99.90;;;;;;5012184;28;20029;-77
2023/02/22 01:20:21;;;;;;;26.25;12.70;;;8.70;99.90;;;;;;5021318;28;20141;-77
2023/02/22 01:22:49;;;;;;;26.70;13.57;;;8.60;99.90;;;;;;5009910;28;20043;-76
2023/02/22 01:25:18;;;;;;;27.33;13.68;;;8.60;99.90;;;;;;5027447;28;20032;-76
2023/02/22 01:27:44;;;;;;;30.60;14.88;;;8.60;99.90;;;;;;5025064;28;20045;-76
2023/02/22 01:30:13;;;;;;;30.85;14.10;;;8.60;99.90;;;;;;5006926;28;20037;-77
2023/02/22 01:32:41;;;;;;;30.58;14.45;;;8.60;99.90;;;;;;5027341;28;20873;-78
2023/02/22 01:35:12;;;;;;;30.65;14.95;;;8.60;99.90;;;;;;5031678;28;20047;-77
2023/02/22 01:37:42;;;;;;;31.13;14.70;;;8.60;99.90;;;;;;5006783;28;20502;-78
2023/02/22 01:40:19;;;;;;;30.85;15.57;;;8.60;99.90;;;;;;5030285;28;20056;-78
2023/02/22 01:42:56;;;;;;;30.45;15.13;;;8.60;99.90;;;;;;5035008;28;20099;-77
2023/02/22 01:45:31;;;;;;;33.05;14.82;;;8.60;99.90;;;;;;5047991;28;20059;-77
2023/02/22 01:48:28;;;;;;;32.55;15.10;;;8.60;99.90;;;;;;5026717;28;20409;-77
2023/02/22 01:51:02;;;;;;;29.33;14.13;;;8.60;99.90;;;;;;5041048;28;20033;-77
2023/02/22 01:53:35;;;;;;;32.65;15.23;;;8.60;99.90;;;;;;5023983;28;20446;-78
2023/02/22 01:56:05;;;;;;;36.25;16.27;;;8.80;99.90;;;;;;5018589;28;20081;-77
2023/02/22 01:58:34;;;;;;;34.00;15.07;;;8.60;99.90;;;;;;5029801;28;20486;-77
2023/02/22 02:01:00;;;;;;;31.25;15.43;;;8.60;99.90;;;;;;5029379;28;20037;-77
2023/02/22 02:03:32;;;;;;;35.17;15.98;;;8.60;99.90;;;;;;5006004;28;20045;-77
2023/02/22 02:06:01;;;;;;;32.20;14.95;;;8.60;99.90;;;;;;5026481;28;20076;-76
2023/02/22 02:08:51;;;;;;;31.38;14.93;;;8.60;99.90;;;;;;5025560;28;20072;-77
2023/02/22 02:11:20;;;;;;;31.92;15.48;;;8.60;99.90;;;;;;5026161;28;20061;-77
2023/02/22 02:13:49;;;;;;;37.13;17.48;;;8.60;99.90;;;;;;5027286;28;20033;-76
2023/02/22 02:16:15;;;;;;;34.47;16.08;;;8.60;99.90;;;;;;5029875;28;20045;-76
2023/02/22 02:18:41;;;;;;;33.05;15.95;;;8.60;99.90;;;;;;5023580;28;20102;-76
2023/02/22 02:21:33;;;;;;;33.50;16.02;;;8.60;99.90;;;;;;5013140;28;20034;-76
2023/02/22 02:24:49;;;;;;;33.67;16.30;;;8.60;99.90;;;;;;5004066;28;20160;-77
2023/02/22 02:27:33;;;;;;;34.35;15.63;;;8.50;99.90;;;;;;5025131;28;20037;-76
2023/02/22 02:30:38;;;;;;;35.08;16.77;;;8.60;99.90;;;;;;5016733;28;20390;-77
2023/02/22 02:33:21;;;;;;;34.05;15.98;;;8.50;99.90;;;;;;5026931;28;20425;-76
2023/02/22 02:35:53;;;;;;;34.60;17.02;;;8.50;99.90;;;;;;5027607;28;20449;-76
2023/02/22 02:38:28;;;;;;;32.83;16.48;;;8.70;99.90;;;;;;5022241;28;20045;-76
2023/02/22 02:41:06;;;;;;;38.53;17.08;;;8.60;99.90;;;;;;5015693;28;20041;-76
2023/02/22 02:43:50;;;;;;;35.17;15.77;;;8.60;99.90;;;;;;5033164;28;20228;-76
2023/02/22 02:46:44;;;;;;;36.13;16.77;;;8.60;99.90;;;;;;5029844;28;20061;-76
2023/02/22 02:49:15;;;;;;;36.70;16.63;;;8.60;99.90;;;;;;5029306;28;20045;-76
2023/02/22 02:51:49;;;;;;;38.40;17.50;;;8.60;99.90;;;;;;5027445;28;20491;-76
2023/02/22 02:54:16;;;;;;;43.08;18.52;;;8.60;99.90;;;;;;5028971;28;20477;-76
2023/02/22 02:56:42;;;;;;;42.50;18.75;;;8.60;99.90;;;;;;5021266;28;20145;-76
2023/02/22 02:59:29;;;;;;;35.40;17.75;;;8.50;99.90;;;;;;5032854;28;20123;-77
2023/02/22 03:01:54;;;;;;;42.03;18.95;;;8.60;99.90;;;;;;5025258;28;20095;-76
2023/02/22 03:04:37;;;;;;;45.47;20.15;;;8.60;99.90;;;;;;5030169;28;20497;-76
2023/02/22 03:07:05;;;;;;;42.25;19.08;;;8.50;99.90;;;;;;5025850;28;20037;-76
2023/02/22 03:10:04;;;;;;;44.65;19.90;;;8.60;99.90;;;;;;5026792;28;20056;-77
2023/02/22 03:12:54;;;;;;;45.13;20.92;;;8.50;99.90;;;;;;5033332;28;20040;-76
2023/02/22 03:15:45;;;;;;;48.70;21.88;;;8.50;99.90;;;;;;5020491;28;20049;-76
2023/02/22 03:18:27;;;;;;;54.10;23.08;;;8.50;99.90;;;;;;5033179;28;20029;-76
2023/02/22 03:21:27;;;;;;;51.78;23.73;;;8.50;99.90;;;;;;5025281;28;20041;-77
2023/02/22 03:24:26;;;;;;;55.58;25.63;;;8.40;99.90;;;;;;5025493;28;20055;-77
2023/02/22 03:27:08;;;;;;;56.45;25.55;;;8.40;99.90;;;;;;5025595;28;20444;-76
2023/02/22 03:29:36;;;;;;;62.10;27.80;;;8.40;99.90;;;;;;5027725;28;20071;-76
2023/02/22 03:32:06;;;;;;;64.47;29.05;;;8.40;99.90;;;;;;5028318;28;20604;-76
2023/02/22 03:34:36;;;;;;;70.57;32.97;;;8.40;99.90;;;;;;5030316;28;20041;-77
2023/02/22 03:37:13;;;;;;;67.70;31.40;;;8.30;99.90;;;;;;5020574;28;20120;-77
2023/02/22 03:39:40;;;;;;;72.80;31.55;;;8.40;99.90;;;;;;5043194;28;20397;-77
2023/02/22 03:42:11;;;;;;;70.93;32.70;;;8.40;99.90;;;;;;5019795;28;20038;-77
2023/02/22 03:44:39;;;;;;;75.78;33.88;;;8.30;99.90;;;;;;5026356;28;20091;-78
2023/02/22 03:47:09;;;;;;;80.10;34.97;;;8.30;99.90;;;;;;5032561;28;20040;-77
2023/02/22 03:49:41;;;;;;;75.40;33.85;;;8.30;99.90;;;;;;5022435;28;20045;-78
2023/02/22 03:52:07;;;;;;;80.87;34.93;;;8.30;99.90;;;;;;5019242;28;20068;-78
2023/02/22 03:54:33;;;;;;;75.18;34.47;;;8.30;99.90;;;;;;5023182;28;20398;-77
2023/02/22 03:57:25;;;;;;;87.78;36.05;;;8.30;99.90;;;;;;5021295;28;20434;-78
2023/02/22 03:59:50;;;;;;;85.60;36.65;;;8.30;99.90;;;;;;5021093;28;20508;-77
2023/02/22 04:02:17;;;;;;;81.28;34.90;;;8.30;99.90;;;;;;5023085;28;20079;-77
2023/02/22 04:04:46;;;;;;;84.50;35.58;;;8.30;99.90;;;;;;5035720;28;20045;-77
2023/02/22 04:07:12;;;;;;;83.18;35.55;;;8.20;99.90;;;;;;5039192;28;20037;-77
2023/02/22 04:09:38;;;;;;;79.32;34.83;;;8.30;99.90;;;;;;5036613;28;20033;-77
2023/02/22 04:12:04;;;;;;;85.22;36.38;;;8.20;99.90;;;;;;5040000;28;20136;-77
2023/02/22 04:14:30;;;;;;;84.03;34.97;;;8.20;99.90;;;;;;5032573;28;20061;-77
2023/02/22 04:16:55;;;;;;;86.40;36.70;;;8.50;99.90;;;;;;5030986;28;20378;-77
2023/02/22 04:19:21;;;;;;;88.00;36.08;;;8.20;99.90;;;;;;5031298;28;20041;-77
2023/02/22 04:21:47;;;;;;;87.05;35.80;;;8.20;99.90;;;;;;5031339;28;20081;-77
2023/02/22 04:24:13;;;;;;;85.35;35.67;;;8.20;99.90;;;;;;5028615;28;20033;-77
2023/02/22 04:26:38;;;;;;;88.20;37.08;;;8.20;99.90;;;;;;5017248;28;20056;-77
2023/02/22 04:29:04;;;;;;;88.43;38.85;;;8.20;99.90;;;;;;5032240;28;20374;-77
2023/02/22 04:31:32;;;;;;;91.90;39.60;;;8.20;99.90;;;;;;5022975;28;20496;-78
2023/02/22 04:33:58;;;;;;;94.88;40.97;;;8.10;99.90;;;;;;5032508;28;20037;-77
2023/02/22 04:36:26;;;;;;;99.28;39.50;;;8.20;99.90;;;;;;5028787;28;20406;-77
2023/02/22 04:38:53;;;;;;;103.28;42.63;;;8.10;99.90;;;;;;5024632;28;20087;-77
2023/02/22 04:41:19;;;;;;;99.22;39.90;;;8.10;99.90;;;;;;5018732;28;20053;-77
2023/02/22 04:43:45;;;;;;;105.93;41.80;;;8.10;99.90;;;;;;5005749;28;20460;-76
2023/02/22 04:46:12;;;;;;;115.10;44.92;;;8.10;99.90;;;;;;5020575;28;20032;-76
2023/02/22 04:48:37;;;;;;;111.45;46.42;;;8.10;99.90;;;;;;5021370;28;20152;-75
2023/02/22 04:51:03;;;;;;;109.15;45.10;;;8.10;99.90;;;;;;5032689;28;20546;-77
2023/02/22 04:53:29;;;;;;;113.70;44.60;;;8.10;99.90;;;;;;5008569;28;20049;-76
2023/02/22 04:55:58;;;;;;;108.55;44.85;;;8.10;99.90;;;;;;5042546;28;20421;-77
2023/02/22 04:58:26;;;;;;;109.22;44.58;;;8.00;99.90;;;;;;5015789;28;20489;-77
2023/02/22 05:00:59;;;;;;;116.55;45.47;;;8.10;99.90;;;;;;5019263;28;20053;-77
2023/02/22 05:03:24;;;;;;;;;;;8.00;99.90;;;;;;5028495;28;20037;-76
2023/02/22 05:05:51;;;;;;;113.38;46.33;;;8.10;99.90;;;;;;5020154;28;19917;-76
2023/02/22 05:08:17;;;;;;;119.68;47.60;;;8.00;99.90;;;;;;5029719;28;20401;-79
2023/02/22 05:10:43;;;;;;;116.68;47.00;;;8.00;99.90;;;;;;5032896;28;20041;-80
2023/02/22 05:13:08;;;;;;;117.43;47.10;;;8.00;99.90;;;;;;5032233;28;20064;-79
2023/02/22 05:15:34;;;;;;;113.28;46.65;;;8.00;99.90;;;;;;5034655;28;20032;-79
2023/02/22 05:17:59;;;;;;;124.28;48.05;;;8.00;99.90;;;;;;5017016;28;20068;-79
2023/02/22 05:20:27;;;;;;;122.88;47.30;;;8.00;99.90;;;;;;5033321;28;20029;-79
2023/02/22 05:22:57;;;;;;;130.68;49.20;;;8.00;99.90;;;;;;5020093;28;20044;-79
2023/02/22 05:25:23;;;;;;;131.70;49.95;;;7.90;99.90;;;;;;5025074;28;20084;-79
2023/02/22 05:27:51;;;;;;;129.55;50.00;;;7.90;99.90;;;;;;5007679;28;20038;-80
2023/02/22 05:30:18;;;;;;;131.60;48.35;;;7.90;99.90;;;;;;5031725;28;20160;-80
2023/02/22 05:32:45;;;;;;;133.98;49.60;;;8.20;99.90;;;;;;5033438;28;20041;-79
2023/02/22 05:35:12;;;;;;;121.32;48.30;;;7.90;99.90;;;;;;5029525;28;20041;-82
2023/02/22 05:37:37;;;;;;;119.47;47.53;;;8.10;99.90;;;;;;5025305;28;20043;-78
2023/02/22 05:40:03;;;;;;;126.00;49.55;;;7.80;99.90;;;;;;5034679;28;20120;-81
2023/02/22 05:42:29;;;;;;;128.77;48.80;;;7.80;99.90;;;;;;5029055;28;20052;-78
2023/02/22 05:44:54;;;;;;;134.80;49.40;;;7.80;99.90;;;;;;5029344;28;20088;-79
2023/02/22 05:47:20;;;;;;;130.07;48.30;;;7.80;99.90;;;;;;5034965;28;20047;-80
2023/02/22 05:49:46;;;;;;;124.32;46.83;;;7.80;99.90;;;;;;5032118;28;20088;-79
2023/02/22 05:52:11;;;;;;;126.72;48.60;;;7.90;99.90;;;;;;5026003;28;20043;-79
2023/02/22 05:54:37;;;;;;;121.57;48.88;;;7.80;99.90;;;;;;5034849;28;20064;-80
2023/02/22 05:57:03;;;;;;;126.13;48.60;;;8.20;99.90;;;;;;5045448;28;20101;-80
2023/02/22 05:59:29;;;;;;;127.30;49.03;;;8.00;99.90;;;;;;5050852;28;20092;-79
2023/02/22 06:01:54;;;;;;;126.97;47.92;;;7.70;99.90;;;;;;5028936;28;20042;-80
2023/02/22 06:04:20;;;;;;;131.30;49.25;;;7.70;99.90;;;;;;5035596;28;20079;-79
2023/02/22 06:06:45;;;;;;;123.97;48.22;;;7.70;99.90;;;;;;5025625;28;20049;-79
2023/02/22 06:09:11;;;;;;;117.97;47.05;;;7.70;99.90;;;;;;5024665;28;20045;-78
2023/02/22 06:11:37;;;;;;;129.82;47.40;;;7.80;99.90;;;;;;5022468;28;20045;-79
2023/02/22 06:14:02;;;;;;;129.68;48.60;;;7.80;99.90;;;;;;5016253;28;20034;-79
2023/02/22 06:16:28;;;;;;;122.00;46.30;;;7.70;99.90;;;;;;5028273;28;20486;-76
2023/02/22 06:18:53;;;;;;;122.03;47.30;;;7.70;99.90;;;;;;5023206;28;20041;-78
2023/02/22 06:21:20;;;;;;;121.53;44.78;;;7.70;99.90;;;;;;5018354;28;20445;-79
2023/02/22 06:23:45;;;;;;;125.32;47.00;;;7.70;99.90;;;;;;5024296;28;20037;-79
2023/02/22 06:26:11;;;;;;;124.68;45.75;;;7.60;99.90;;;;;;5030057;28;20485;-79
2023/02/22 06:28:36;;;;;;;119.78;46.20;;;7.60;99.90;;;;;;5026026;28;20045;-81
2023/02/22 06:31:02;;;;;;;125.18;46.65;;;7.60;99.90;;;;;;5014626;28;20068;-79
2023/02/22 06:33:27;;;;;;;121.68;45.65;;;7.60;99.90;;;;;;5017703;28;20401;-79
2023/02/22 06:35:53;;;;;;;122.28;46.15;;;7.90;99.90;;;;;;5030438;28;20040;-85
2023/02/22 06:38:24;;;;;;;121.03;45.30;;;7.60;99.90;;;;;;5021295;28;20457;-80
2023/02/22 06:40:50;;;;;;;123.00;46.72;;;7.60;99.90;;;;;;5030604;28;20060;-76
2023/02/22 06:43:16;;;;;;;121.55;46.65;;;7.60;99.90;;;;;;5020606;28;20506;-76
2023/02/22 06:45:42;;;;;;;118.03;46.30;;;7.60;99.90;;;;;;5028117;28;20111;-77
2023/02/22 06:48:08;;;;;;;121.05;45.15;;;7.80;99.90;;;;;;5026530;28;20056;-77
2023/02/22 06:50:33;;;;;;;119.90;45.28;;;7.50;99.90;;;;;;5029245;28;20048;-77
2023/02/22 06:52:59;;;;;;;120.63;44.85;;;7.60;99.90;;;;;;5029999;28;20036;-77
2023/02/22 06:55:27;;;;;;;113.60;44.55;;;7.50;99.90;;;;;;5031719;28;20072;-77
2023/02/22 06:57:53;;;;;;;119.63;45.15;;;7.60;99.90;;;;;;5023955;28;20041;-75
2023/02/22 07:00:22;;;;;;;121.53;44.40;;;7.50;99.90;;;;;;5024258;28;20036;-77
2023/02/22 07:02:47;;;;;;;121.25;45.00;;;7.50;99.90;;;;;;5022355;28;20048;-78
2023/02/22 07:05:16;;;;;;;121.65;45.95;;;7.50;99.90;;;;;;5011858;28;20037;-76
2023/02/22 07:07:42;;;;;;;125.30;44.70;;;7.50;99.90;;;;;;5033010;28;20541;-78
2023/02/22 07:10:14;;;;;;;127.10;45.40;;;7.50;99.90;;;;;;5051578;28;20033;-77
2023/02/22 07:12:40;;;;;;;;;;;7.50;99.90;;;;;;5036976;28;20480;-77
2023/02/22 07:15:06;;;;;;;125.07;45.78;;;7.60;99.90;;;;;;5034619;28;19928;-75
2023/02/22 07:17:31;;;;;;;109.20;44.67;;;7.60;99.90;;;;;;5030880;28;20032;-78
2023/02/22 07:19:57;;;;;;;125.97;47.30;;;7.60;99.90;;;;;;5015912;28;20563;-78
2023/02/22 07:22:23;;;;;;;120.38;44.70;;;7.60;99.90;;;;;;5016947;28;20033;-77
2023/02/22 07:24:48;;;;;;;125.07;44.67;;;8.40;99.90;;;;;;5032935;28;20040;-77
2023/02/22 07:27:14;;;;;;;120.75;45.03;;;7.60;99.90;;;;;;5012794;28;20104;-76
2023/02/22 07:29:42;;;;;;;121.85;46.25;;;7.70;99.90;;;;;;5030791;28;20532;-77
2023/02/22 07:32:07;;;;;;;120.35;46.20;;;7.70;99.90;;;;;;5029929;28;20409;-77
2023/02/22 07:34:33;;;;;;;118.25;44.83;;;7.70;99.90;;;;;;5022158;28;20039;-78
2023/02/22 07:36:58;;;;;;;120.65;45.88;;;7.70;99.90;;;;;;5023009;28;20037;-77
2023/02/22 07:39:25;;;;;;;120.70;45.15;;;7.70;99.90;;;;;;5025974;28;20032;-76
2023/02/22 07:41:51;;;;;;;122.05;47.28;;;7.70;99.90;;;;;;5017803;28;20073;-77
2023/02/22 07:44:17;;;;;;;123.05;45.22;;;7.70;99.90;;;;;;5047777;28;20544;-77
2023/02/22 07:46:47;;;;;;;109.57;43.38;;;7.70;99.90;;;;;;5027965;28;20041;-77
2023/02/22 07:49:13;;;;;;;107.40;42.70;;;7.80;99.90;;;;;;5030733;28;20056;-77
2023/02/22 07:51:39;;;;;;;115.40;45.67;;;7.80;99.90;;;;;;5035604;28;20037;-76
2023/02/22 07:54:04;;;;;;;106.47;41.80;;;7.80;99.90;;;;;;5052892;28;20036;-76
2023/02/22 07:56:30;;;;;;;112.85;43.22;;;7.80;99.90;;;;;;5032143;28;20037;-77
2023/02/22 07:58:56;;;;;;;108.80;41.97;;;7.80;99.90;;;;;;5030942;28;20036;-77
2023/02/22 08:01:21;;;;;;;106.85;41.25;;;7.80;99.90;;;;;;5030013;28;20037;-77
2023/02/22 08:03:47;;;;;;;100.13;38.63;;;7.90;99.90;;;;;;5050967;28;20447;-75
2023/02/22 08:06:12;;;;;;;101.38;39.10;;;7.80;99.90;;;;;;5032266;28;20091;-77
2023/02/22 08:08:39;;;;;;;107.93;40.88;;;7.80;99.90;;;;;;5033329;28;20068;-77
2023/02/22 08:11:04;;;;;;;109.25;39.85;;;8.10;99.90;;;;;;5028746;28;20048;-77
2023/02/22 08:13:30;;;;;;;102.47;40.40;;;7.90;99.90;;;;;;5029839;28;20436;-77
2023/02/22 08:15:56;;;;;;;101.88;38.70;;;7.90;99.90;;;;;;5032868;28;20509;-77
2023/02/22 08:18:23;;;;;;;110.88;40.03;;;7.90;99.90;;;;;;5031012;28;20513;-78
2023/02/22 08:20:50;;;;;;;109.97;40.25;;;7.90;99.90;;;;;;5033182;28;20409;-77
2023/02/22 08:23:18;;;;;;;108.93;40.80;;;7.90;99.90;;;;;;5030662;28;20049;-77
2023/02/22 08:25:44;;;;;;;107.28;40.22;;;8.00;99.90;;;;;;5045759;28;20448;-76
2023/02/22 08:28:13;;;;;;;111.80;40.58;;;7.90;99.90;;;;;;5031020;28;20040;-77
2023/02/22 08:30:42;;;;;;;103.90;39.90;;;8.00;99.90;;;;;;5033753;28;20043;-76
2023/02/22 08:33:09;;;;;;;107.93;40.80;;;8.00;99.90;;;;;;5031396;28;20040;-76
2023/02/22 08:35:35;;;;;;;107.70;41.50;;;8.00;99.90;;;;;;5028849;28;20037;-76
2023/02/22 08:38:03;;;;;;;111.50;40.97;;;8.00;99.90;;;;;;5012785;28;20036;-76
2023/02/22 08:40:33;;;;;;;106.38;40.47;;;8.00;99.90;;;;;;5029169;28;20033;-77
2023/02/22 08:43:00;;;;;;;112.07;41.10;;;8.00;99.90;;;;;;5023611;28;20413;-77
2023/02/22 08:45:26;;;;;;;101.65;39.13;;;8.00;99.90;;;;;;5022452;28;20519;-76
2023/02/22 08:47:52;;;;;;;108.45;40.47;;;8.10;99.90;;;;;;5015744;28;20068;-76
2023/02/22 08:50:22;;;;;;;113.30;39.50;;;8.10;99.90;;;;;;5029757;28;20079;-76
2023/02/22 08:52:53;;;;;;;110.25;40.60;;;8.00;99.90;;;;;;5022392;28;20033;-76
2023/02/22 08:55:24;;;;;;;117.85;45.00;;;8.00;99.90;;;;;;5024823;28;20049;-76
2023/02/22 08:57:49;;;;;;;118.50;42.63;;;8.00;99.90;;;;;;5031369;28;20040;-76
2023/02/22 09:00:19;;;;;;;111.70;40.83;;;8.00;99.90;;;;;;5028564;28;20055;-76
2023/02/22 09:02:45;;;;;;;120.25;41.10;;;8.10;99.90;;;;;;5001481;28;20132;-76
2023/02/22 09:05:11;;;;;;;123.60;40.92;;;8.10;99.90;;;;;;5021993;28;20556;-76
2023/02/22 09:07:41;;;;;;;121.20;40.30;;;8.10;99.90;;;;;;5025190;28;20102;-76
2023/02/22 09:10:07;;;;;;;122.13;40.05;;;8.00;99.90;;;;;;5046739;28;20443;-76
2023/02/22 09:12:33;;;;;;;125.72;43.03;;;8.00;99.90;;;;;;5028939;28;20037;-76
2023/02/22 09:14:59;;;;;;;130.25;41.35;;;8.00;99.90;;;;;;5051372;28;20041;-76
2023/02/22 09:17:24;;;;;;;137.00;44.13;;;8.00;99.90;;;;;;5016108;28;20042;-76
2023/02/22 09:19:50;;;;;;;140.15;41.65;;;8.00;99.90;;;;;;5022356;28;20120;-76
2023/02/22 09:22:15;;;;;;;148.02;46.67;;;8.10;99.90;;;;;;5015023;28;20037;-76
2023/02/22 09:24:42;;;;;;;140.98;43.95;;;8.00;99.90;;;;;;5019824;28;20033;-76
2023/02/22 09:27:09;;;;;;;149.23;45.47;;;8.00;99.90;;;;;;5030326;28;20401;-76
2023/02/22 09:29:35;;;;;;;147.65;45.72;;;8.00;99.90;;;;;;5028717;28;20045;-76
2023/02/22 09:32:02;;;;;;;151.45;47.83;;;8.00;99.90;;;;;;5020884;28;20045;-76
2023/02/22 09:34:34;;;;;;;147.25;46.60;;;8.00;99.90;;;;;;5019527;28;20050;-76
2023/02/22 09:37:07;;;;;;;152.03;45.27;;;8.00;99.90;;;;;;5026468;28;20049;-75
2023/02/22 09:39:36;;;;;;;145.35;45.22;;;8.30;99.90;;;;;;5017521;28;20041;-76
2023/02/22 09:42:24;;;;;;;144.63;47.00;;;8.00;99.90;;;;;;5009340;28;20049;-76
2023/02/22 09:45:11;;;;;;;150.07;47.30;;;8.10;99.90;;;;;;5024164;28;20118;-76
2023/02/22 09:47:53;;;;;;;155.77;46.58;;;8.10;99.90;;;;;;5025105;28;20493;-76
2023/02/22 09:50:35;;;;;;;156.40;46.72;;;8.10;99.90;;;;;;5017376;28;20037;-76
2023/02/22 09:53:11;;;;;;;149.80;45.47;;;8.10;99.90;;;;;;4999601;28;20045;-76
2023/02/22 09:55:40;;;;;;;146.75;42.20;;;8.10;99.90;;;;;;5027175;28;20528;-76
2023/02/22 09:58:22;;;;;;;145.73;43.70;;;8.10;99.90;;;;;;5032252;28;20521;-77
2023/02/22 10:00:55;;;;;;;148.55;43.35;;;8.20;99.90;;;;;;5030438;28;20068;-76
2023/02/22 10:03:27;;;;;;;159.60;46.72;;;8.10;99.90;;;;;;5021497;28;20144;-76
2023/02/22 10:06:22;;;;;;;140.15;44.22;;;8.10;99.90;;;;;;5028707;28;20036;-76
2023/02/22 10:08:52;;;;;;;157.65;46.25;;;8.20;99.90;;;;;;5001825;28;20442;-75
2023/02/22 10:11:51;;;;;;;156.00;46.30;;;8.20;99.90;;;;;;5036041;28;20044;-76
2023/02/22 10:14:32;;;;;;;152.68;46.58;;;8.20;99.90;;;;;;5027557;28;20051;-76
2023/02/22 10:17:19;;;;;;;143.88;44.63;;;8.30;99.90;;;;;;5012029;28;20044;-76
2023/02/22 10:20:27;;;;;;;156.23;45.58;;;8.30;99.90;;;;;;5031636;28;20437;-76
2023/02/22 10:23:26;;;;;;;161.20;46.83;;;8.30;99.90;;;;;;4961711;28;20445;-76
2023/02/22 10:25:57;;;;;;;171.10;49.15;;;8.30;99.90;;;;;;5022292;28;20041;-76
2023/02/22 10:28:29;;;;;;;169.13;50.10;;;8.40;99.90;;;;;;5023320;28;20520;-77
2023/02/22 10:31:06;;;;;;;174.73;50.53;;;8.40;99.90;;;;;;5015052;28;20118;-76
2023/02/22 10:33:34;;;;;;;177.43;50.55;;;8.40;99.90;;;;;;5024258;28;20551;-76
2023/02/22 10:36:00;;;;;;;168.68;50.80;;;8.40;99.90;;;;;;5012829;28;20048;-76
2023/02/22 10:38:31;;;;;;;184.95;51.20;;;8.50;99.90;;;;;;5042777;28;20041;-76
2023/02/22 10:41:30;;;;;;;187.07;51.22;;;8.50;99.90;;;;;;5024328;28;20048;-76
2023/02/22 10:43:56;;;;;;;189.18;54.20;;;8.50;99.90;;;;;;5027187;28;20052;-76
2023/02/22 10:46:23;;;;;;;196.38;54.50;;;8.50;99.90;;;;;;5027479;28;20079;-76
2023/02/22 10:48:55;;;;;;;197.45;56.22;;;8.50;99.90;;;;;;5005497;28;20170;-76
2023/02/22 10:51:21;;;;;;;203.57;54.95;;;8.60;99.90;;;;;;5025529;28;20554;-76
2023/02/22 10:54:10;;;;;;;193.38;55.42;;;8.70;99.90;;;;;;5025381;28;20049;-76
2023/02/22 10:56:46;;;;;;;185.43;52.65;;;8.60;99.90;;;;;;5020396;28;20041;-76
2023/02/22 10:59:43;;;;;;;156.63;48.13;;;8.60;99.90;;;;;;5022838;28;20045;-76
2023/02/22 11:02:27;;;;;;;155.95;47.28;;;8.70;99.90;;;;;;4999671;28;20494;-76
2023/02/22 11:04:56;;;;;;;171.13;48.28;;;8.80;99.90;;;;;;5011677;28;20090;-77
2023/02/22 11:07:26;;;;;;;179.70;52.85;;;8.80;99.90;;;;;;5021783;28;20069;-76
2023/02/22 11:10:11;;;;;;;181.32;52.63;;;8.80;99.90;;;;;;5019839;28;20099;-77
2023/02/22 11:12:40;;;;;;;180.25;52.47;;;8.90;99.90;;;;;;5015743;28;20056;-76
2023/02/22 11:15:26;;;;;;;156.05;46.53;;;8.90;99.90;;;;;;5014264;28;20045;-77
2023/02/22 11:17:54;;;;;;;159.20;45.55;;;8.90;99.90;;;;;;5022055;28;20037;-76
2023/02/22 11:20:27;;;;;;;156.25;45.25;;;8.90;99.90;;;;;;5017068;28;20442;-75
2023/02/22 11:23:03;;;;;;;152.52;46.92;;;9.00;99.90;;;;;;5022855;28;20043;-75
2023/02/22 11:25:32;;;;;;;142.73;42.63;;;9.00;99.90;;;;;;5049158;28;20090;-75
2023/02/22 11:28:16;;;;;;;145.73;44.47;;;8.90;99.90;;;;;;5032325;28;20041;-75
2023/02/22 11:30:45;;;;;;;131.80;43.15;;;8.90;99.90;;;;;;5042458;28;20119;-75
2023/02/22 11:33:23;;;;;;;129.93;42.75;;;9.00;99.90;;;;;;5011175;28;20513;-76
2023/02/22 11:36:01;;;;;;;124.10;41.13;;;9.00;99.90;;;;;;5028685;28;20120;-76
2023/02/22 11:38:32;;;;;;;119.93;41.05;;;9.00;99.90;;;;;;5034047;28;20064;-76
2023/02/22 11:41:27;;;;;;;115.85;38.28;;;9.10;99.90;;;;;;5033628;28;20037;-77
2023/02/22 11:43:55;;;;;;;101.47;35.08;;;9.20;99.90;;;;;;5027913;28;20116;-76
2023/02/22 11:46:30;;;;;;;101.90;34.60;;;9.10;99.90;;;;;;5031168;28;20052;-75
2023/02/22 11:49:11;;;;;;;89.75;32.38;;;9.10;99.90;;;;;;5031099;28;20037;-76
2023/02/22 11:52:08;;;;;;;97.25;32.22;;;9.20;99.90;;;;;;5029677;28;20508;-76
2023/02/22 11:55:24;;;;;;;88.97;33.38;;;9.20;99.90;;;;;;5031935;28;20525;-77
2023/02/22 11:58:12;;;;;;;93.57;34.25;;;9.30;99.90;;;;;;5003400;28;20041;-76
2023/02/22 12:00:43;;;;;;;95.95;33.88;;;9.40;99.90;;;;;;5027265;28;20026;-76
2023/02/22 12:03:27;;;;;;;81.35;33.00;;;9.40;99.90;;;;;;5029341;28;20044;-75
2023/02/22 12:06:18;;;;;;;82.80;33.20;;;9.50;99.90;;;;;;5025143;28;20119;-76
2023/02/22 12:09:04;;;;;;;76.28;30.10;;;9.60;99.90;;;;;;5031366;28;20111;-76
2023/02/22 12:12:05;;;;;;;77.00;30.70;;;9.60;99.90;;;;;;5028724;28;20036;-76
2023/02/22 12:14:53;;;;;;;77.93;31.42;;;9.70;99.90;;;;;;5005128;28;20110;-76
2023/02/22 12:17:33;;;;;;;72.00;30.73;;;9.80;99.90;;;;;;5028477;28;20052;-76
2023/02/22 12:20:26;;;;;;;81.57;30.50;;;9.80;99.90;;;;;;5025508;28;20108;-76
2023/02/22 12:23:30;;;;;;;74.15;29.65;;;9.90;99.90;;;;;;5017665;28;20053;-75
2023/02/22 12:26:29;;;;;;;70.88;27.65;;;9.90;99.90;;;;;;5022433;28;20449;-76
2023/02/22 12:29:00;;;;;;;64.93;26.42;;;9.90;99.90;;;;;;4998280;28;20046;-76
2023/02/22 12:31:32;;;;;;;62.40;27.45;;;9.90;99.90;;;;;;5025364;28;20551;-77
2023/02/22 12:34:28;;;;;;;62.33;28.52;;;10.00;99.90;;;;;;5027055;28;20494;-76
2023/02/22 12:37:14;;;;;;;70.30;32.45;;;10.10;99.90;;;;;;5024274;28;20040;-77
2023/02/22 12:39:58;;;;;;;67.47;31.30;;;10.20;99.90;;;;;;5027735;28;20435;-76
2023/02/22 12:42:42;;;;;;;66.78;29.67;;;10.20;99.90;;;;;;5023346;28;20037;-76
2023/02/22 12:45:19;;;;;;;67.65;28.27;;;10.20;99.90;;;;;;5042694;28;20101;-76
2023/02/22 12:47:52;;;;;;;63.85;28.92;;;10.30;99.90;;;;;;5015843;28;20116;-76
2023/02/22 12:50:22;;;;;;;70.18;29.85;;;10.30;99.90;;;;;;5019568;28;20045;-76
2023/02/22 12:53:13;;;;;;;62.40;27.35;;;10.40;99.90;;;;;;5041633;28;20481;-76
2023/02/22 12:55:46;;;;;;;72.47;34.10;;;10.40;99.90;;;;;;5018130;28;20048;-76